GUQ weather

Guanare Airport
Guanare, Portuguesa, Venezuela

Public forecast

Using degrees Celsius for public forecast. Weather courtesy of forecast.io.

METAR (pilot weather report)

Report is more than 6 hours old.

Retrieved 2018/12/06 13:00 UTC (9 months ago):

SVGU 061300Z /////KT 9999 BKN017 24/19 Q1015

TAF (pilot weather forecast)

Forecast is more than 12 hours old.

Closest forecast is Barquisimeto International Airport, 65.4 nm (121.0 km) NNE. Retrieved 2019/09/15 12:09 UTC (13 hours ago):

TAF SVBM 151001Z 1512/1612 09009KT 9999 FEW016 SCT070 TX33/1518Z TN22/1608Z BECMG 1512/1516 10010KT 6000 TSRA FEW010 CB BKN060